sensor_id;sensor_type;location;lat;lon;timestamp;P1;durP1;ratioP1;P2;durP2;ratioP2
14088;SDS011;7120;52.890;6.040;2023-04-06T00:00:07;7.50;;;6.70;;
14088;SDS011;7120;52.890;6.040;2023-04-06T00:02:33;9.77;;;7.33;;
14088;SDS011;7120;52.890;6.040;2023-04-06T00:04:59;7.53;;;6.83;;
14088;SDS011;7120;52.890;6.040;2023-04-06T00:07:25;8.33;;;6.97;;
14088;SDS011;7120;52.890;6.040;2023-04-06T00:09:51;8.80;;;6.90;;
14088;SDS011;7120;52.890;6.040;2023-04-06T00:12:16;7.00;;;6.30;;
14088;SDS011;7120;52.890;6.040;2023-04-06T00:14:41;12.77;;;7.33;;
14088;SDS011;7120;52.890;6.040;2023-04-06T00:17:07;8.73;;;7.47;;
14088;SDS011;7120;52.890;6.040;2023-04-06T00:19:32;8.43;;;7.57;;
14088;SDS011;7120;52.890;6.040;2023-04-06T00:21:58;9.23;;;7.07;;
14088;SDS011;7120;52.890;6.040;2023-04-06T00:24:23;8.20;;;7.40;;
14088;SDS011;7120;52.890;6.040;2023-04-06T00:26:49;8.73;;;7.50;;
14088;SDS011;7120;52.890;6.040;2023-04-06T00:29:14;10.70;;;7.83;;
14088;SDS011;7120;52.890;6.040;2023-04-06T00:31:40;10.77;;;7.57;;
14088;SDS011;7120;52.890;6.040;2023-04-06T00:34:05;8.13;;;7.33;;
14088;SDS011;7120;52.890;6.040;2023-04-06T00:36:31;10.60;;;7.50;;
14088;SDS011;7120;52.890;6.040;2023-04-06T00:38:56;10.70;;;7.30;;
14088;SDS011;7120;52.890;6.040;2023-04-06T00:41:21;8.17;;;7.03;;
14088;SDS011;7120;52.890;6.040;2023-04-06T00:43:47;8.73;;;7.13;;
14088;SDS011;7120;52.890;6.040;2023-04-06T00:46:12;8.97;;;7.87;;
14088;SDS011;7120;52.890;6.040;2023-04-06T00:48:38;9.57;;;7.77;;
14088;SDS011;7120;52.890;6.040;2023-04-06T00:51:04;10.37;;;7.90;;
14088;SDS011;7120;52.890;6.040;2023-04-06T00:53:30;10.60;;;7.63;;
14088;SDS011;7120;52.890;6.040;2023-04-06T00:55:55;8.70;;;7.80;;
14088;SDS011;7120;52.890;6.040;2023-04-06T00:58:20;8.87;;;7.70;;
14088;SDS011;7120;52.890;6.040;2023-04-06T01:00:46;9.10;;;7.90;;
14088;SDS011;7120;52.890;6.040;2023-04-06T01:03:12;8.30;;;7.43;;
14088;SDS011;7120;52.890;6.040;2023-04-06T01:05:37;11.80;;;8.17;;
14088;SDS011;7120;52.890;6.040;2023-04-06T01:08:05;8.83;;;7.93;;
14088;SDS011;7120;52.890;6.040;2023-04-06T01:10:31;9.40;;;7.87;;
14088;SDS011;7120;52.890;6.040;2023-04-06T01:12:58;8.97;;;7.93;;
14088;SDS011;7120;52.890;6.040;2023-04-06T01:15:23;9.07;;;8.10;;
14088;SDS011;7120;52.890;6.040;2023-04-06T01:17:50;9.10;;;7.70;;
14088;SDS011;7120;52.890;6.040;2023-04-06T01:20:16;11.63;;;7.67;;
14088;SDS011;7120;52.890;6.040;2023-04-06T01:22:41;9.90;;;8.13;;
14088;SDS011;7120;52.890;6.040;2023-04-06T01:25:07;8.93;;;8.03;;
14088;SDS011;7120;52.890;6.040;2023-04-06T01:27:33;11.17;;;8.20;;
14088;SDS011;7120;52.890;6.040;2023-04-06T01:29:58;9.83;;;7.87;;
14088;SDS011;7120;52.890;6.040;2023-04-06T01:32:24;10.17;;;8.60;;
14088;SDS011;7120;52.890;6.040;2023-04-06T01:34:49;9.33;;;8.23;;
14088;SDS011;7120;52.890;6.040;2023-04-06T01:37:15;8.93;;;7.73;;
14088;SDS011;7120;52.890;6.040;2023-04-06T01:39:41;9.20;;;7.53;;
14088;SDS011;7120;52.890;6.040;2023-04-06T01:42:08;9.03;;;8.03;;
14088;SDS011;7120;52.890;6.040;2023-04-06T01:44:33;10.00;;;8.07;;
14088;SDS011;7120;52.890;6.040;2023-04-06T01:46:59;8.97;;;8.07;;
14088;SDS011;7120;52.890;6.040;2023-04-06T01:49:24;9.63;;;8.63;;
14088;SDS011;7120;52.890;6.040;2023-04-06T01:51:50;10.63;;;8.40;;
14088;SDS011;7120;52.890;6.040;2023-04-06T01:54:16;9.53;;;8.63;;
14088;SDS011;7120;52.890;6.040;2023-04-06T01:56:42;12.43;;;8.70;;
14088;SDS011;7120;52.890;6.040;2023-04-06T01:59:07;10.53;;;8.43;;
14088;SDS011;7120;52.890;6.040;2023-04-06T02:01:32;10.97;;;8.77;;
14088;SDS011;7120;52.890;6.040;2023-04-06T02:03:58;10.93;;;8.77;;
14088;SDS011;7120;52.890;6.040;2023-04-06T02:06:23;12.57;;;8.90;;
14088;SDS011;7120;52.890;6.040;2023-04-06T02:08:48;10.23;;;9.13;;
14088;SDS011;7120;52.890;6.040;2023-04-06T02:11:14;11.63;;;8.40;;
14088;SDS011;7120;52.890;6.040;2023-04-06T02:13:39;11.13;;;8.53;;
14088;SDS011;7120;52.890;6.040;2023-04-06T02:16:05;9.43;;;8.30;;
14088;SDS011;7120;52.890;6.040;2023-04-06T02:18:30;9.87;;;8.73;;
14088;SDS011;7120;52.890;6.040;2023-04-06T02:20:56;10.97;;;9.27;;
14088;SDS011;7120;52.890;6.040;2023-04-06T02:23:21;11.87;;;8.50;;
14088;SDS011;7120;52.890;6.040;2023-04-06T02:25:46;12.10;;;8.60;;
14088;SDS011;7120;52.890;6.040;2023-04-06T02:28:12;9.97;;;8.97;;
14088;SDS011;7120;52.890;6.040;2023-04-06T02:30:38;10.00;;;8.47;;
14088;SDS011;7120;52.890;6.040;2023-04-06T02:33:03;12.43;;;8.73;;
14088;SDS011;7120;52.890;6.040;2023-04-06T02:35:29;9.93;;;8.40;;
14088;SDS011;7120;52.890;6.040;2023-04-06T02:37:55;9.73;;;8.60;;
14088;SDS011;7120;52.890;6.040;2023-04-06T02:40:21;11.77;;;8.57;;
14088;SDS011;7120;52.890;6.040;2023-04-06T02:42:46;12.37;;;9.83;;
14088;SDS011;7120;52.890;6.040;2023-04-06T02:45:12;9.77;;;8.77;;
14088;SDS011;7120;52.890;6.040;2023-04-06T02:47:37;10.83;;;9.30;;
14088;SDS011;7120;52.890;6.040;2023-04-06T02:50:02;14.47;;;10.03;;
14088;SDS011;7120;52.890;6.040;2023-04-06T02:52:28;11.93;;;9.10;;
14088;SDS011;7120;52.890;6.040;2023-04-06T02:54:53;12.33;;;9.77;;
14088;SDS011;7120;52.890;6.040;2023-04-06T02:57:19;12.40;;;10.00;;
14088;SDS011;7120;52.890;6.040;2023-04-06T02:59:44;11.90;;;10.17;;
14088;SDS011;7120;52.890;6.040;2023-04-06T03:02:10;9.93;;;8.93;;
14088;SDS011;7120;52.890;6.040;2023-04-06T03:04:35;11.40;;;8.80;;
14088;SDS011;7120;52.890;6.040;2023-04-06T03:07:01;11.40;;;9.67;;
14088;SDS011;7120;52.890;6.040;2023-04-06T03:09:26;14.00;;;10.47;;
14088;SDS011;7120;52.890;6.040;2023-04-06T03:11:52;12.03;;;9.87;;
14088;SDS011;7120;52.890;6.040;2023-04-06T03:14:17;11.13;;;10.00;;
14088;SDS011;7120;52.890;6.040;2023-04-06T03:16:46;11.90;;;10.20;;
14088;SDS011;7120;52.890;6.040;2023-04-06T03:19:12;11.13;;;9.47;;
14088;SDS011;7120;52.890;6.040;2023-04-06T03:21:38;13.43;;;10.13;;
14088;SDS011;7120;52.890;6.040;2023-04-06T03:24:03;17.50;;;10.77;;
14088;SDS011;7120;52.890;6.040;2023-04-06T03:26:29;11.67;;;9.57;;
14088;SDS011;7120;52.890;6.040;2023-04-06T03:28:55;13.43;;;10.90;;
14088;SDS011;7120;52.890;6.040;2023-04-06T03:31:20;12.80;;;10.27;;
14088;SDS011;7120;52.890;6.040;2023-04-06T03:33:45;15.77;;;10.50;;
14088;SDS011;7120;52.890;6.040;2023-04-06T03:36:11;12.73;;;10.93;;
14088;SDS011;7120;52.890;6.040;2023-04-06T03:38:36;12.83;;;10.60;;
14088;SDS011;7120;52.890;6.040;2023-04-06T03:41:01;12.90;;;10.60;;
14088;SDS011;7120;52.890;6.040;2023-04-06T03:43:27;14.30;;;10.87;;
14088;SDS011;7120;52.890;6.040;2023-04-06T03:45:52;12.30;;;11.00;;
14088;SDS011;7120;52.890;6.040;2023-04-06T03:48:17;11.60;;;9.80;;
14088;SDS011;7120;52.890;6.040;2023-04-06T03:50:43;15.40;;;10.93;;
14088;SDS011;7120;52.890;6.040;2023-04-06T03:53:08;12.07;;;9.87;;
14088;SDS011;7120;52.890;6.040;2023-04-06T03:55:33;12.83;;;9.80;;
14088;SDS011;7120;52.890;6.040;2023-04-06T03:57:59;11.23;;;9.80;;
14088;SDS011;7120;52.890;6.040;2023-04-06T04:00:24;12.63;;;10.87;;
14088;SDS011;7120;52.890;6.040;2023-04-06T04:02:50;13.47;;;9.93;;
14088;SDS011;7120;52.890;6.040;2023-04-06T04:05:15;13.10;;;10.80;;
14088;SDS011;7120;52.890;6.040;2023-04-06T04:07:41;15.13;;;10.23;;
14088;SDS011;7120;52.890;6.040;2023-04-06T04:10:06;13.13;;;10.13;;
14088;SDS011;7120;52.890;6.040;2023-04-06T04:12:32;12.93;;;10.73;;
14088;SDS011;7120;52.890;6.040;2023-04-06T04:14:57;13.53;;;10.47;;
14088;SDS011;7120;52.890;6.040;2023-04-06T04:17:22;11.73;;;9.47;;
14088;SDS011;7120;52.890;6.040;2023-04-06T04:19:49;12.57;;;10.37;;
14088;SDS011;7120;52.890;6.040;2023-04-06T04:22:14;12.63;;;10.63;;
14088;SDS011;7120;52.890;6.040;2023-04-06T04:24:40;12.80;;;11.00;;
14088;SDS011;7120;52.890;6.040;2023-04-06T04:27:05;12.43;;;10.50;;
14088;SDS011;7120;52.890;6.040;2023-04-06T04:29:31;13.63;;;10.87;;
14088;SDS011;7120;52.890;6.040;2023-04-06T04:31:56;15.07;;;10.83;;
14088;SDS011;7120;52.890;6.040;2023-04-06T04:34:21;16.50;;;10.73;;
14088;SDS011;7120;52.890;6.040;2023-04-06T04:36:50;16.70;;;11.47;;
14088;SDS011;7120;52.890;6.040;2023-04-06T04:39:16;12.80;;;10.93;;
14088;SDS011;7120;52.890;6.040;2023-04-06T04:41:41;12.97;;;11.03;;
14088;SDS011;7120;52.890;6.040;2023-04-06T04:44:06;14.10;;;11.47;;
14088;SDS011;7120;52.890;6.040;2023-04-06T04:46:31;14.17;;;11.50;;
14088;SDS011;7120;52.890;6.040;2023-04-06T04:48:57;14.13;;;10.47;;
14088;SDS011;7120;52.890;6.040;2023-04-06T04:51:22;13.60;;;11.17;;
14088;SDS011;7120;52.890;6.040;2023-04-06T04:53:49;15.23;;;11.60;;
14088;SDS011;7120;52.890;6.040;2023-04-06T04:56:14;14.50;;;10.83;;
14088;SDS011;7120;52.890;6.040;2023-04-06T04:58:40;13.33;;;10.93;;
14088;SDS011;7120;52.890;6.040;2023-04-06T05:01:05;14.13;;;11.10;;
14088;SDS011;7120;52.890;6.040;2023-04-06T05:03:32;12.73;;;10.67;;
14088;SDS011;7120;52.890;6.040;2023-04-06T05:05:58;13.23;;;11.30;;
14088;SDS011;7120;52.890;6.040;2023-04-06T05:08:23;12.90;;;10.77;;
14088;SDS011;7120;52.890;6.040;2023-04-06T05:10:48;12.57;;;11.23;;
14088;SDS011;7120;52.890;6.040;2023-04-06T05:13:14;13.13;;;10.67;;
14088;SDS011;7120;52.890;6.040;2023-04-06T05:15:40;13.30;;;10.80;;
14088;SDS011;7120;52.890;6.040;2023-04-06T05:18:06;15.20;;;12.23;;
14088;SDS011;7120;52.890;6.040;2023-04-06T05:20:32;15.83;;;12.77;;
14088;SDS011;7120;52.890;6.040;2023-04-06T05:22:58;15.90;;;12.53;;
14088;SDS011;7120;52.890;6.040;2023-04-06T05:25:23;13.33;;;11.43;;
14088;SDS011;7120;52.890;6.040;2023-04-06T05:27:49;14.97;;;11.90;;
14088;SDS011;7120;52.890;6.040;2023-04-06T05:30:15;15.13;;;13.37;;
14088;SDS011;7120;52.890;6.040;2023-04-06T05:32:40;13.60;;;11.63;;
14088;SDS011;7120;52.890;6.040;2023-04-06T05:35:06;13.40;;;10.90;;
14088;SDS011;7120;52.890;6.040;2023-04-06T05:37:31;12.87;;;11.47;;
14088;SDS011;7120;52.890;6.040;2023-04-06T05:39:57;11.97;;;10.77;;
14088;SDS011;7120;52.890;6.040;2023-04-06T05:42:22;14.57;;;10.97;;
14088;SDS011;7120;52.890;6.040;2023-04-06T05:44:48;15.27;;;10.80;;
14088;SDS011;7120;52.890;6.040;2023-04-06T05:47:13;13.90;;;10.37;;
14088;SDS011;7120;52.890;6.040;2023-04-06T05:49:38;14.13;;;10.40;;
14088;SDS011;7120;52.890;6.040;2023-04-06T05:52:04;11.50;;;10.30;;
14088;SDS011;7120;52.890;6.040;2023-04-06T05:54:29;13.27;;;10.53;;
14088;SDS011;7120;52.890;6.040;2023-04-06T05:56:55;11.63;;;10.43;;
14088;SDS011;7120;52.890;6.040;2023-04-06T05:59:20;12.57;;;10.00;;
14088;SDS011;7120;52.890;6.040;2023-04-06T06:01:46;12.20;;;10.23;;
14088;SDS011;7120;52.890;6.040;2023-04-06T06:04:11;15.10;;;11.43;;
14088;SDS011;7120;52.890;6.040;2023-04-06T06:06:36;14.17;;;10.13;;
14088;SDS011;7120;52.890;6.040;2023-04-06T06:09:02;13.83;;;10.20;;
14088;SDS011;7120;52.890;6.040;2023-04-06T06:11:28;12.57;;;10.37;;
14088;SDS011;7120;52.890;6.040;2023-04-06T06:13:54;12.13;;;9.73;;
14088;SDS011;7120;52.890;6.040;2023-04-06T06:16:20;12.90;;;10.27;;
14088;SDS011;7120;52.890;6.040;2023-04-06T06:18:45;11.20;;;10.00;;
14088;SDS011;7120;52.890;6.040;2023-04-06T06:21:12;13.87;;;10.57;;
14088;SDS011;7120;52.890;6.040;2023-04-06T06:23:38;15.20;;;10.73;;
14088;SDS011;7120;52.890;6.040;2023-04-06T06:26:04;13.53;;;9.90;;
14088;SDS011;7120;52.890;6.040;2023-04-06T06:28:29;11.20;;;9.93;;
14088;SDS011;7120;52.890;6.040;2023-04-06T06:30:55;12.67;;;9.90;;
14088;SDS011;7120;52.890;6.040;2023-04-06T06:33:20;10.93;;;9.57;;
14088;SDS011;7120;52.890;6.040;2023-04-06T06:35:46;10.47;;;9.43;;
14088;SDS011;7120;52.890;6.040;2023-04-06T06:38:11;10.77;;;9.67;;
14088;SDS011;7120;52.890;6.040;2023-04-06T06:40:36;11.33;;;10.13;;
14088;SDS011;7120;52.890;6.040;2023-04-06T06:43:02;10.93;;;9.77;;
14088;SDS011;7120;52.890;6.040;2023-04-06T06:45:28;11.37;;;9.20;;
14088;SDS011;7120;52.890;6.040;2023-04-06T06:47:54;11.47;;;9.67;;
14088;SDS011;7120;52.890;6.040;2023-04-06T06:50:20;10.87;;;9.33;;
14088;SDS011;7120;52.890;6.040;2023-04-06T06:52:45;10.57;;;9.27;;
14088;SDS011;7120;52.890;6.040;2023-04-06T06:55:11;10.37;;;8.70;;
14088;SDS011;7120;52.890;6.040;2023-04-06T06:57:36;11.40;;;10.20;;
14088;SDS011;7120;52.890;6.040;2023-04-06T07:00:03;10.90;;;9.13;;
14088;SDS011;7120;52.890;6.040;2023-04-06T07:02:30;10.93;;;9.83;;
14088;SDS011;7120;52.890;6.040;2023-04-06T07:04:55;10.47;;;9.37;;
14088;SDS011;7120;52.890;6.040;2023-04-06T07:07:21;11.47;;;9.83;;
14088;SDS011;7120;52.890;6.040;2023-04-06T07:09:46;12.40;;;10.03;;
14088;SDS011;7120;52.890;6.040;2023-04-06T07:12:11;11.20;;;8.93;;
14088;SDS011;7120;52.890;6.040;2023-04-06T07:14:37;11.37;;;9.83;;
14088;SDS011;7120;52.890;6.040;2023-04-06T07:17:02;11.83;;;9.20;;
14088;SDS011;7120;52.890;6.040;2023-04-06T07:19:27;13.10;;;9.90;;
14088;SDS011;7120;52.890;6.040;2023-04-06T07:21:53;10.57;;;9.30;;
14088;SDS011;7120;52.890;6.040;2023-04-06T07:24:18;11.80;;;9.90;;
14088;SDS011;7120;52.890;6.040;2023-04-06T07:26:43;12.50;;;10.27;;
14088;SDS011;7120;52.890;6.040;2023-04-06T07:29:09;14.00;;;10.57;;
14088;SDS011;7120;52.890;6.040;2023-04-06T07:31:34;10.93;;;9.77;;
14088;SDS011;7120;52.890;6.040;2023-04-06T07:34:01;11.27;;;9.80;;
14088;SDS011;7120;52.890;6.040;2023-04-06T07:36:26;11.87;;;10.67;;
14088;SDS011;7120;52.890;6.040;2023-04-06T07:38:52;11.23;;;9.50;;
14088;SDS011;7120;52.890;6.040;2023-04-06T07:41:17;10.60;;;9.50;;
14088;SDS011;7120;52.890;6.040;2023-04-06T07:43:42;11.83;;;10.00;;
14088;SDS011;7120;52.890;6.040;2023-04-06T07:46:08;11.53;;;9.80;;
14088;SDS011;7120;52.890;6.040;2023-04-06T07:48:33;13.40;;;9.77;;
14088;SDS011;7120;52.890;6.040;2023-04-06T07:51:02;14.93;;;9.50;;
14088;SDS011;7120;52.890;6.040;2023-04-06T07:53:29;10.07;;;9.03;;
14088;SDS011;7120;52.890;6.040;2023-04-06T07:55:55;11.87;;;9.73;;
14088;SDS011;7120;52.890;6.040;2023-04-06T07:58:21;11.47;;;10.10;;
14088;SDS011;7120;52.890;6.040;2023-04-06T08:00:46;11.17;;;10.07;;
14088;SDS011;7120;52.890;6.040;2023-04-06T08:03:11;14.80;;;10.53;;
14088;SDS011;7120;52.890;6.040;2023-04-06T08:05:37;13.63;;;10.40;;
14088;SDS011;7120;52.890;6.040;2023-04-06T08:08:03;12.80;;;10.20;;
14088;SDS011;7120;52.890;6.040;2023-04-06T08:10:29;13.17;;;10.77;;
14088;SDS011;7120;52.890;6.040;2023-04-06T08:12:54;13.10;;;11.27;;
14088;SDS011;7120;52.890;6.040;2023-04-06T08:15:19;12.20;;;10.93;;
14088;SDS011;7120;52.890;6.040;2023-04-06T08:17:45;13.10;;;11.70;;
14088;SDS011;7120;52.890;6.040;2023-04-06T08:20:10;14.53;;;11.60;;
14088;SDS011;7120;52.890;6.040;2023-04-06T08:22:36;13.47;;;11.70;;
14088;SDS011;7120;52.890;6.040;2023-04-06T08:25:01;15.67;;;12.00;;
14088;SDS011;7120;52.890;6.040;2023-04-06T08:27:26;14.40;;;12.30;;
14088;SDS011;7120;52.890;6.040;2023-04-06T08:29:52;13.93;;;12.23;;
14088;SDS011;7120;52.890;6.040;2023-04-06T08:32:17;16.13;;;12.67;;
14088;SDS011;7120;52.890;6.040;2023-04-06T08:34:42;15.13;;;12.30;;
14088;SDS011;7120;52.890;6.040;2023-04-06T08:37:08;16.27;;;12.13;;
14088;SDS011;7120;52.890;6.040;2023-04-06T08:39:33;14.63;;;12.80;;
14088;SDS011;7120;52.890;6.040;2023-04-06T08:41:58;13.60;;;12.27;;
14088;SDS011;7120;52.890;6.040;2023-04-06T08:44:27;12.87;;;11.67;;
14088;SDS011;7120;52.890;6.040;2023-04-06T08:46:54;14.53;;;13.00;;
14088;SDS011;7120;52.890;6.040;2023-04-06T08:49:20;14.87;;;12.93;;
14088;SDS011;7120;52.890;6.040;2023-04-06T08:51:45;15.33;;;13.23;;
14088;SDS011;7120;52.890;6.040;2023-04-06T08:54:12;16.03;;;13.83;;
14088;SDS011;7120;52.890;6.040;2023-04-06T08:56:38;14.80;;;13.17;;
14088;SDS011;7120;52.890;6.040;2023-04-06T08:59:04;16.80;;;13.53;;
14088;SDS011;7120;52.890;6.040;2023-04-06T09:01:31;15.07;;;13.43;;
14088;SDS011;7120;52.890;6.040;2023-04-06T09:03:59;15.87;;;14.17;;
14088;SDS011;7120;52.890;6.040;2023-04-06T09:06:25;15.53;;;13.93;;
14088;SDS011;7120;52.890;6.040;2023-04-06T09:08:55;15.60;;;14.00;;
14088;SDS011;7120;52.890;6.040;2023-04-06T09:11:21;15.60;;;13.67;;
14088;SDS011;7120;52.890;6.040;2023-04-06T09:13:48;15.33;;;13.73;;
14088;SDS011;7120;52.890;6.040;2023-04-06T09:16:18;15.43;;;13.80;;
14088;SDS011;7120;52.890;6.040;2023-04-06T09:18:43;15.37;;;13.93;;
14088;SDS011;7120;52.890;6.040;2023-04-06T09:21:10;16.27;;;14.67;;
14088;SDS011;7120;52.890;6.040;2023-04-06T09:23:36;15.60;;;14.00;;
14088;SDS011;7120;52.890;6.040;2023-04-06T09:28:47;16.47;;;14.77;;
14088;SDS011;7120;52.890;6.040;2023-04-06T09:31:15;15.30;;;13.77;;
14088;SDS011;7120;52.890;6.040;2023-04-06T09:33:43;16.40;;;14.70;;
14088;SDS011;7120;52.890;6.040;2023-04-06T09:36:10;16.20;;;14.70;;
14088;SDS011;7120;52.890;6.040;2023-04-06T09:38:37;16.43;;;14.73;;
14088;SDS011;7120;52.890;6.040;2023-04-06T09:41:03;17.03;;;15.33;;
14088;SDS011;7120;52.890;6.040;2023-04-06T09:43:29;18.37;;;16.03;;
14088;SDS011;7120;52.890;6.040;2023-04-06T09:45:55;20.73;;;16.13;;
14088;SDS011;7120;52.890;6.040;2023-04-06T09:48:21;18.83;;;16.67;;
14088;SDS011;7120;52.890;6.040;2023-04-06T09:50:49;20.10;;;16.47;;
14088;SDS011;7120;52.890;6.040;2023-04-06T09:53:23;20.73;;;16.53;;
14088;SDS011;7120;52.890;6.040;2023-04-06T09:55:51;19.03;;;15.63;;
14088;SDS011;7120;52.890;6.040;2023-04-06T09:58:22;17.53;;;15.73;;
14088;SDS011;7120;52.890;6.040;2023-04-06T10:00:54;19.00;;;16.53;;
14088;SDS011;7120;52.890;6.040;2023-04-06T10:03:45;19.13;;;16.80;;
14088;SDS011;7120;52.890;6.040;2023-04-06T10:06:26;18.33;;;16.33;;
14088;SDS011;7120;52.890;6.040;2023-04-06T10:08:53;19.93;;;17.23;;
14088;SDS011;7120;52.890;6.040;2023-04-06T10:11:21;21.20;;;17.90;;
14088;SDS011;7120;52.890;6.040;2023-04-06T10:13:47;20.10;;;17.97;;
14088;SDS011;7120;52.890;6.040;2023-04-06T10:16:14;21.47;;;17.93;;
14088;SDS011;7120;52.890;6.040;2023-04-06T10:18:41;20.17;;;16.47;;
14088;SDS011;7120;52.890;6.040;2023-04-06T10:21:14;21.17;;;16.93;;
14088;SDS011;7120;52.890;6.040;2023-04-06T10:23:51;21.53;;;17.10;;
14088;SDS011;7120;52.890;6.040;2023-04-06T10:26:21;18.90;;;16.90;;
14088;SDS011;7120;52.890;6.040;2023-04-06T10:28:47;19.10;;;16.67;;
14088;SDS011;7120;52.890;6.040;2023-04-06T10:31:14;19.73;;;17.53;;
14088;SDS011;7120;52.890;6.040;2023-04-06T10:33:40;18.47;;;16.53;;
14088;SDS011;7120;52.890;6.040;2023-04-06T10:36:13;18.70;;;16.80;;
14088;SDS011;7120;52.890;6.040;2023-04-06T10:38:40;20.73;;;17.30;;
14088;SDS011;7120;52.890;6.040;2023-04-06T10:41:07;18.67;;;16.70;;
14088;SDS011;7120;52.890;6.040;2023-04-06T10:43:34;20.37;;;18.17;;
14088;SDS011;7120;52.890;6.040;2023-04-06T10:46:00;20.23;;;17.20;;
14088;SDS011;7120;52.890;6.040;2023-04-06T10:48:39;19.37;;;17.00;;
14088;SDS011;7120;52.890;6.040;2023-04-06T10:51:11;20.10;;;17.27;;
14088;SDS011;7120;52.890;6.040;2023-04-06T10:53:38;19.47;;;17.10;;
14088;SDS011;7120;52.890;6.040;2023-04-06T10:56:10;18.53;;;16.40;;
14088;SDS011;7120;52.890;6.040;2023-04-06T10:58:37;20.23;;;17.50;;
14088;SDS011;7120;52.890;6.040;2023-04-06T11:01:02;18.47;;;16.47;;
14088;SDS011;7120;52.890;6.040;2023-04-06T11:03:28;19.03;;;16.77;;
14088;SDS011;7120;52.890;6.040;2023-04-06T11:05:53;19.20;;;17.00;;
14088;SDS011;7120;52.890;6.040;2023-04-06T11:10:49;23.60;;;17.87;;
14088;SDS011;7120;52.890;6.040;2023-04-06T11:13:15;20.43;;;17.43;;
14088;SDS011;7120;52.890;6.040;2023-04-06T11:15:41;22.40;;;16.53;;
14088;SDS011;7120;52.890;6.040;2023-04-06T11:18:06;20.43;;;18.00;;
14088;SDS011;7120;52.890;6.040;2023-04-06T11:20:31;19.90;;;17.43;;
14088;SDS011;7120;52.890;6.040;2023-04-06T11:22:57;19.47;;;17.37;;
14088;SDS011;7120;52.890;6.040;2023-04-06T11:25:24;23.20;;;17.93;;
14088;SDS011;7120;52.890;6.040;2023-04-06T11:27:51;21.50;;;18.53;;
14088;SDS011;7120;52.890;6.040;2023-04-06T11:30:16;22.63;;;17.83;;
14088;SDS011;7120;52.890;6.040;2023-04-06T11:32:43;19.73;;;17.50;;
14088;SDS011;7120;52.890;6.040;2023-04-06T11:35:19;20.37;;;18.13;;
14088;SDS011;7120;52.890;6.040;2023-04-06T11:37:47;23.37;;;18.53;;
14088;SDS011;7120;52.890;6.040;2023-04-06T11:40:14;21.20;;;18.03;;
14088;SDS011;7120;52.890;6.040;2023-04-06T11:42:41;21.57;;;18.77;;
14088;SDS011;7120;52.890;6.040;2023-04-06T11:45:07;20.77;;;18.47;;
14088;SDS011;7120;52.890;6.040;2023-04-06T11:47:34;20.10;;;17.33;;
14088;SDS011;7120;52.890;6.040;2023-04-06T11:50:07;21.67;;;17.70;;
14088;SDS011;7120;52.890;6.040;2023-04-06T11:52:34;20.67;;;17.87;;
14088;SDS011;7120;52.890;6.040;2023-04-06T11:55:09;21.23;;;17.33;;
14088;SDS011;7120;52.890;6.040;2023-04-06T11:57:38;19.43;;;17.23;;
14088;SDS011;7120;52.890;6.040;2023-04-06T12:00:04;18.77;;;16.77;;
14088;SDS011;7120;52.890;6.040;2023-04-06T12:02:31;17.90;;;16.00;;
14088;SDS011;7120;52.890;6.040;2023-04-06T12:04:57;19.00;;;16.33;;
14088;SDS011;7120;52.890;6.040;2023-04-06T12:07:22;19.60;;;17.60;;
14088;SDS011;7120;52.890;6.040;2023-04-06T12:09:48;20.00;;;17.87;;
14088;SDS011;7120;52.890;6.040;2023-04-06T12:12:13;22.30;;;18.57;;
14088;SDS011;7120;52.890;6.040;2023-04-06T12:14:38;21.17;;;17.33;;
14088;SDS011;7120;52.890;6.040;2023-04-06T12:17:04;19.03;;;16.73;;
14088;SDS011;7120;52.890;6.040;2023-04-06T12:19:29;19.00;;;16.90;;
14088;SDS011;7120;52.890;6.040;2023-04-06T12:21:54;17.07;;;14.87;;
14088;SDS011;7120;52.890;6.040;2023-04-06T12:24:21;17.00;;;14.20;;
14088;SDS011;7120;52.890;6.040;2023-04-06T12:26:47;18.33;;;13.97;;
14088;SDS011;7120;52.890;6.040;2023-04-06T12:29:12;17.23;;;13.40;;
14088;SDS011;7120;52.890;6.040;2023-04-06T12:31:38;14.80;;;13.07;;
14088;SDS011;7120;52.890;6.040;2023-04-06T12:34:06;15.67;;;13.60;;
14088;SDS011;7120;52.890;6.040;2023-04-06T12:36:31;15.00;;;12.10;;
14088;SDS011;7120;52.890;6.040;2023-04-06T12:38:57;15.67;;;12.90;;
14088;SDS011;7120;52.890;6.040;2023-04-06T12:41:23;13.90;;;12.43;;
14088;SDS011;7120;52.890;6.040;2023-04-06T12:43:48;16.03;;;13.97;;
14088;SDS011;7120;52.890;6.040;2023-04-06T12:46:17;14.53;;;13.03;;
14088;SDS011;7120;52.890;6.040;2023-04-06T12:48:42;16.50;;;13.73;;
14088;SDS011;7120;52.890;6.040;2023-04-06T12:51:08;15.13;;;13.40;;
14088;SDS011;7120;52.890;6.040;2023-04-06T12:53:34;16.40;;;13.60;;
14088;SDS011;7120;52.890;6.040;2023-04-06T12:55:59;16.33;;;13.40;;
14088;SDS011;7120;52.890;6.040;2023-04-06T12:58:25;14.77;;;13.10;;
14088;SDS011;7120;52.890;6.040;2023-04-06T13:00:55;14.00;;;12.53;;
14088;SDS011;7120;52.890;6.040;2023-04-06T13:03:22;15.57;;;13.43;;
14088;SDS011;7120;52.890;6.040;2023-04-06T13:05:48;16.77;;;13.27;;
14088;SDS011;7120;52.890;6.040;2023-04-06T13:08:15;16.90;;;13.37;;
14088;SDS011;7120;52.890;6.040;2023-04-06T13:10:47;15.67;;;13.23;;
14088;SDS011;7120;52.890;6.040;2023-04-06T13:13:14;16.30;;;13.80;;
14088;SDS011;7120;52.890;6.040;2023-04-06T13:15:40;14.93;;;13.37;;
14088;SDS011;7120;52.890;6.040;2023-04-06T13:18:08;16.07;;;13.00;;
14088;SDS011;7120;52.890;6.040;2023-04-06T13:20:34;15.13;;;13.13;;
14088;SDS011;7120;52.890;6.040;2023-04-06T13:23:00;14.97;;;13.03;;
14088;SDS011;7120;52.890;6.040;2023-04-06T13:25:25;18.80;;;13.67;;
14088;SDS011;7120;52.890;6.040;2023-04-06T13:27:51;17.97;;;14.43;;
14088;SDS011;7120;52.890;6.040;2023-04-06T13:30:16;16.53;;;13.33;;
14088;SDS011;7120;52.890;6.040;2023-04-06T13:32:42;14.37;;;12.67;;
14088;SDS011;7120;52.890;6.040;2023-04-06T13:35:07;16.17;;;12.60;;
14088;SDS011;7120;52.890;6.040;2023-04-06T13:37:34;17.63;;;13.33;;
14088;SDS011;7120;52.890;6.040;2023-04-06T13:40:01;16.37;;;12.37;;
14088;SDS011;7120;52.890;6.040;2023-04-06T13:42:27;14.90;;;12.27;;
14088;SDS011;7120;52.890;6.040;2023-04-06T13:44:53;13.93;;;12.40;;
14088;SDS011;7120;52.890;6.040;2023-04-06T13:47:18;16.03;;;13.33;;
14088;SDS011;7120;52.890;6.040;2023-04-06T13:49:44;15.10;;;12.63;;
14088;SDS011;7120;52.890;6.040;2023-04-06T13:52:09;15.37;;;13.20;;
14088;SDS011;7120;52.890;6.040;2023-04-06T13:54:35;16.07;;;14.20;;
14088;SDS011;7120;52.890;6.040;2023-04-06T13:57:01;22.27;;;15.20;;
14088;SDS011;7120;52.890;6.040;2023-04-06T13:59:33;18.90;;;16.17;;
14088;SDS011;7120;52.890;6.040;2023-04-06T14:02:00;20.37;;;16.23;;
14088;SDS011;7120;52.890;6.040;2023-04-06T14:04:26;21.80;;;16.77;;
14088;SDS011;7120;52.890;6.040;2023-04-06T14:06:53;20.60;;;17.37;;
14088;SDS011;7120;52.890;6.040;2023-04-06T14:09:18;22.17;;;18.27;;
14088;SDS011;7120;52.890;6.040;2023-04-06T14:11:43;22.17;;;17.83;;
14088;SDS011;7120;52.890;6.040;2023-04-06T14:14:09;21.27;;;18.70;;
14088;SDS011;7120;52.890;6.040;2023-04-06T14:16:34;26.73;;;20.77;;
14088;SDS011;7120;52.890;6.040;2023-04-06T14:19:00;23.03;;;19.23;;
14088;SDS011;7120;52.890;6.040;2023-04-06T14:21:25;23.50;;;19.10;;
14088;SDS011;7120;52.890;6.040;2023-04-06T14:23:51;23.67;;;19.90;;
14088;SDS011;7120;52.890;6.040;2023-04-06T14:26:17;26.33;;;20.07;;
14088;SDS011;7120;52.890;6.040;2023-04-06T14:28:43;27.30;;;20.30;;
14088;SDS011;7120;52.890;6.040;2023-04-06T14:31:11;26.83;;;20.87;;
14088;SDS011;7120;52.890;6.040;2023-04-06T14:33:38;25.13;;;20.90;;
14088;SDS011;7120;52.890;6.040;2023-04-06T14:36:05;25.40;;;21.93;;
14088;SDS011;7120;52.890;6.040;2023-04-06T14:38:31;27.10;;;23.10;;